Terminal Aerodrome Forecast
Issued by NWS Newport/Morehead City, NC

Home | Current Version | Previous Version | Text Only | Print | Product List | Glossary Off
Versions: 1 2 3 4 5 6 7 8 9 10 11 12 13 14

528
FTUS42 KMHX 011043 AAB
TAFEWN
TAF AMD
KEWN 011043Z 0111/0206 22010KT P6SM VCSH BKN015
     FM011200 24008KT P6SM SCT025 BKN050
     FM011400 29008KT P6SM SKC=

USA.gov is the U.S. government's official web portal to all federal, state and local government web resources and services.